^^
Station Historical Data
Daily Summary for February 27, 2018 Units:  Both    English   Metric
« Previous Day
Next Day »
Daily Weekly Monthly Yearly Custom
  High: Low: Average:
Temperature: TemperatureF °F /  -17.8 °C 60.4 °F /  15.8 °C 75.6 °F /  24.2 °C
Dew Point: DewpointF °F /  -17.8 °C 40.1 °F /  4.5 °C 43.5 °F /  6.4 °C
Humidity: Humidity% 18% 34%
Wind Speed: WindSpeedMPHmph /  0km/h - 1.4mph /  2.3km/h
Wind Gust: WindSpeedGustMPHmph /  0km/h - -
Wind- - SW
Pressure: PressureIn in /  0 hPa 29.60 in /  1002.3 hPa -
Precipitation: 0.00 in /  0 mm    
Historical Graphs
 
 
Tabular Data for February 27, 2018
Time Temperature Dew Point Pressure Wind Wind Speed Wind Gust Humidity Rainfall Rate (Hourly) solar Conditions
TemperatureF °F /  -17.8 °C DewpointF °F /  -17.8 °C PressureInin /  0hPa Calm     Humidity% HourlyPrecipInin /  0mm SolarRadiationWatts/m^2 W/m2 Conditions
00:00 68.2 °F /  20.1 °C 41.5 °F /  5.3 °C 29.72in /  1006.3hPa Calm   4.0mph /  6.4km/h 38% 0.00in /  0mm 0.0 W/m2
00:05 68.0 °F /  20 °C 41.4 °F /  5.2 °C 29.72in /  1006.3hPa Calm     38% 0.00in /  0mm 0.0 W/m2
00:10 67.6 °F /  19.8 °C 41.2 °F /  5.1 °C 29.72in /  1006.3hPa Calm   1.0mph /  1.6km/h 38% 0.00in /  0mm 0.0 W/m2
00:15 67.5 °F /  19.7 °C 41.0 °F /  5 °C 29.72in /  1006.3hPa Calm     38% 0.00in /  0mm 0.0 W/m2
00:20 67.5 °F /  19.7 °C 41.7 °F /  5.4 °C 29.72in /  1006.3hPa Calm     39% 0.00in /  0mm 0.0 W/m2
00:25 67.1 °F /  19.5 °C 41.4 °F /  5.2 °C 29.72in /  1006.3hPa Calm     39% 0.00in /  0mm 0.0 W/m2
00:30 66.9 °F /  19.4 °C 41.2 °F /  5.1 °C 29.72in /  1006.3hPa Calm     39% 0.00in /  0mm 0.0 W/m2
00:35 66.7 °F /  19.3 °C 41.7 °F /  5.4 °C 29.72in /  1006.3hPa Calm     40% 0.00in /  0mm 0.0 W/m2
00:40 66.6 °F /  19.2 °C 41.5 °F /  5.3 °C 29.72in /  1006.3hPa Calm     40% 0.00in /  0mm 0.0 W/m2
00:45 66.4 °F /  19.1 °C 41.4 °F /  5.2 °C 29.72in /  1006.3hPa Calm     40% 0.00in /  0mm 0.0 W/m2
00:51 66.2 °F /  19 °C 41.7 °F /  5.4 °C 29.71in /  1006hPa Calm     41% 0.00in /  0mm 0.0 W/m2
00:56 66.0 °F /  18.9 °C 41.7 °F /  5.4 °C 29.72in /  1006.3hPa Calm     41% 0.00in /  0mm 0.0 W/m2
01:01 65.7 °F /  18.7 °C 41.9 °F /  5.5 °C 29.71in /  1006hPa Calm     42% 0.00in /  0mm 0.0 W/m2
01:06 65.5 °F /  18.6 °C 41.7 °F /  5.4 °C 29.71in /  1006hPa Calm     42% 0.00in /  0mm 0.0 W/m2
01:11 65.3 °F /  18.5 °C 42.3 °F /  5.7 °C 29.71in /  1006hPa Calm     43% 0.00in /  0mm 0.0 W/m2
01:16 65.1 °F /  18.4 °C 42.1 °F /  5.6 °C 29.71in /  1006hPa Calm     43% 0.00in /  0mm 0.0 W/m2
01:21 64.9 °F /  18.3 °C 42.4 °F /  5.8 °C 29.71in /  1006hPa Calm     44% 0.00in /  0mm 0.0 W/m2
01:26 64.8 °F /  18.2 °C 42.3 °F /  5.7 °C 29.70in /  1005.6hPa Calm     44% 0.00in /  0mm 0.0 W/m2
01:31 64.2 °F /  17.9 °C 41.9 °F /  5.5 °C 29.70in /  1005.6hPa Calm   2.0mph /  3.2km/h 44% 0.00in /  0mm 0.0 W/m2
01:37 64.0 °F /  17.8 °C 42.3 °F /  5.7 °C 29.70in /  1005.6hPa Calm     45% 0.00in /  0mm 0.0 W/m2
01:42 63.7 °F /  17.6 °C 41.9 °F /  5.5 °C 29.70in /  1005.6hPa Calm     45% 0.00in /  0mm 0.0 W/m2
01:47 63.5 °F /  17.5 °C 42.3 °F /  5.7 °C 29.70in /  1005.6hPa Calm     46% 0.00in /  0mm 0.0 W/m2
01:52 63.3 °F /  17.4 °C 42.3 °F /  5.7 °C 29.69in /  1005.3hPa Calm     46% 0.00in /  0mm 0.0 W/m2
01:57 63.1 °F /  17.3 °C 42.1 °F /  5.6 °C 29.69in /  1005.3hPa Calm     46% 0.00in /  0mm 0.0 W/m2
02:02 63.0 °F /  17.2 °C 41.9 °F /  5.5 °C 29.69in /  1005.3hPa Calm     46% 0.00in /  0mm 0.0 W/m2
02:07 62.8 °F /  17.1 °C 42.3 °F /  5.7 °C 29.69in /  1005.3hPa Calm     47% 0.00in /  0mm 0.0 W/m2
02:13 62.8 °F /  17.1 °C 42.3 °F /  5.7 °C 29.69in /  1005.3hPa Calm     47% 0.00in /  0mm 0.0 W/m2
02:18 62.4 °F /  16.9 °C 41.9 °F /  5.5 °C 29.69in /  1005.3hPa Calm     47% 0.00in /  0mm 0.0 W/m2
02:23 62.4 °F /  16.9 °C 41.9 °F /  5.5 °C 29.69in /  1005.3hPa Calm     47% 0.00in /  0mm 0.0 W/m2
02:28 62.2 °F /  16.8 °C 41.7 °F /  5.4 °C 29.69in /  1005.3hPa Calm   1.0mph /  1.6km/h 47% 0.00in /  0mm 0.0 W/m2
02:33 62.1 °F /  16.7 °C 41.5 °F /  5.3 °C 29.69in /  1005.3hPa Calm     47% 0.00in /  0mm 0.0 W/m2
02:38 62.1 °F /  16.7 °C 41.5 °F /  5.3 °C 29.69in /  1005.3hPa Calm   1.0mph /  1.6km/h 47% 0.00in /  0mm 0.0 W/m2
02:43 61.9 °F /  16.6 °C 41.4 °F /  5.2 °C 29.68in /  1005hPa SSE 0.9mph /  1.4km/h 1.0mph /  1.6km/h 47% 0.00in /  0mm 0.0 W/m2
02:48 61.5 °F /  16.4 °C 41.7 °F /  5.4 °C 29.68in /  1005hPa SSE 0.9mph /  1.4km/h 1.0mph /  1.6km/h 48% 0.00in /  0mm 0.0 W/m2
02:54 61.3 °F /  16.3 °C 41.5 °F /  5.3 °C 29.68in /  1005hPa Calm   1.0mph /  1.6km/h 48% 0.00in /  0mm 0.0 W/m2
02:59 61.3 °F /  16.3 °C 41.5 °F /  5.3 °C 29.68in /  1005hPa Calm     48% 0.00in /  0mm 0.0 W/m2
03:04 61.2 °F /  16.2 °C 41.9 °F /  5.5 °C 29.68in /  1005hPa Calm     49% 0.00in /  0mm 0.0 W/m2
03:09 61.2 °F /  16.2 °C 41.9 °F /  5.5 °C 29.67in /  1004.6hPa Calm   1.0mph /  1.6km/h 49% 0.00in /  0mm 0.0 W/m2
03:14 61.0 °F /  16.1 °C 41.7 °F /  5.4 °C 29.67in /  1004.6hPa Calm   1.0mph /  1.6km/h 49% 0.00in /  0mm 0.0 W/m2
03:19 61.0 °F /  16.1 °C 41.7 °F /  5.4 °C 29.67in /  1004.6hPa Calm   1.0mph /  1.6km/h 49% 0.00in /  0mm 0.0 W/m2
03:24 61.0 °F /  16.1 °C 41.7 °F /  5.4 °C 29.67in /  1004.6hPa SSE 2.0mph /  3.2km/h 2.0mph /  3.2km/h 49% 0.00in /  0mm 0.0 W/m2
03:29 60.8 °F /  16 °C 41.5 °F /  5.3 °C 29.67in /  1004.6hPa Calm   3.0mph /  4.8km/h 49% 0.00in /  0mm 0.0 W/m2
03:34 60.8 °F /  16 °C 41.5 °F /  5.3 °C 29.67in /  1004.6hPa SSE 0.9mph /  1.4km/h 3.0mph /  4.8km/h 49% 0.00in /  0mm 0.0 W/m2
03:39 60.6 °F /  15.9 °C 41.9 °F /  5.5 °C 29.67in /  1004.6hPa Calm     50% 0.00in /  0mm 0.0 W/m2
03:45 60.6 °F /  15.9 °C 41.9 °F /  5.5 °C 29.66in /  1004.3hPa Calm   1.0mph /  1.6km/h 50% 0.00in /  0mm 0.0 W/m2
03:50 60.6 °F /  15.9 °C 42.4 °F /  5.8 °C 29.66in /  1004.3hPa Calm     51% 0.00in /  0mm 0.0 W/m2
03:55 60.6 °F /  15.9 °C 42.4 °F /  5.8 °C 29.66in /  1004.3hPa Calm     51% 0.00in /  0mm 0.0 W/m2
04:00 60.6 °F /  15.9 °C 42.4 °F /  5.8 °C 29.67in /  1004.6hPa Calm   1.0mph /  1.6km/h 51% 0.00in /  0mm 0.0 W/m2
04:05 60.6 °F /  15.9 °C 42.4 °F /  5.8 °C 29.67in /  1004.6hPa Calm   1.0mph /  1.6km/h 51% 0.00in /  0mm 0.0 W/m2
04:10 60.6 °F /  15.9 °C 42.4 °F /  5.8 °C 29.67in /  1004.6hPa Calm   1.0mph /  1.6km/h 51% 0.00in /  0mm 0.0 W/m2
04:15 60.6 °F /  15.9 °C 42.4 °F /  5.8 °C 29.67in /  1004.6hPa Calm     51% 0.00in /  0mm 0.0 W/m2
04:20 60.6 °F /  15.9 °C 42.4 °F /  5.8 °C 29.67in /  1004.6hPa Calm   2.0mph /  3.2km/h 51% 0.00in /  0mm 0.0 W/m2
04:25 60.6 °F /  15.9 °C 41.9 °F /  5.5 °C 29.66in /  1004.3hPa Calm   2.0mph /  3.2km/h 50% 0.00in /  0mm 0.0 W/m2
04:31 60.6 °F /  15.9 °C 42.4 °F /  5.8 °C 29.66in /  1004.3hPa ESE 2.0mph /  3.2km/h 4.0mph /  6.4km/h 51% 0.00in /  0mm 0.0 W/m2
04:36 60.6 °F /  15.9 °C 42.4 °F /  5.8 °C 29.67in /  1004.6hPa East 0.9mph /  1.4km/h 2.0mph /  3.2km/h 51% 0.00in /  0mm 0.0 W/m2
04:41 60.6 °F /  15.9 °C 41.9 °F /  5.5 °C 29.66in /  1004.3hPa Calm   2.0mph /  3.2km/h 50% 0.00in /  0mm 0.0 W/m2
04:46 60.6 °F /  15.9 °C 42.4 °F /  5.8 °C 29.66in /  1004.3hPa Calm   1.0mph /  1.6km/h 51% 0.00in /  0mm 0.0 W/m2
04:51 60.4 °F /  15.8 °C 42.3 °F /  5.7 °C 29.66in /  1004.3hPa Calm   2.0mph /  3.2km/h 51% 0.00in /  0mm 0.0 W/m2
04:56 60.4 °F /  15.8 °C 42.3 °F /  5.7 °C 29.66in /  1004.3hPa Calm   1.0mph /  1.6km/h 51% 0.00in /  0mm 0.0 W/m2
05:01 60.4 °F /  15.8 °C 42.3 °F /  5.7 °C 29.66in /  1004.3hPa Calm   1.0mph /  1.6km/h 51% 0.00in /  0mm 0.0 W/m2
05:06 60.4 °F /  15.8 °C 42.3 °F /  5.7 °C 29.66in /  1004.3hPa Calm   1.0mph /  1.6km/h 51% 0.00in /  0mm 0.0 W/m2
05:11 60.4 °F /  15.8 °C 42.3 °F /  5.7 °C 29.66in /  1004.3hPa Calm   3.0mph /  4.8km/h 51% 0.00in /  0mm 0.0 W/m2
05:16 60.4 °F /  15.8 °C 42.3 °F /  5.7 °C 29.66in /  1004.3hPa Calm   2.0mph /  3.2km/h 51% 0.00in /  0mm 0.0 W/m2
05:22 60.4 °F /  15.8 °C 42.3 °F /  5.7 °C 29.66in /  1004.3hPa Calm   4.0mph /  6.4km/h 51% 0.00in /  0mm 0.0 W/m2
05:27 60.4 °F /  15.8 °C 42.3 °F /  5.7 °C 29.66in /  1004.3hPa East 2.0mph /  3.2km/h 4.0mph /  6.4km/h 51% 0.00in /  0mm 0.0 W/m2
05:32 60.4 °F /  15.8 °C 41.7 °F /  5.4 °C 29.67in /  1004.6hPa East 2.0mph /  3.2km/h 3.0mph /  4.8km/h 50% 0.00in /  0mm 0.0 W/m2
05:37 60.6 °F /  15.9 °C 41.9 °F /  5.5 °C 29.67in /  1004.6hPa East 2.9mph /  4.7km/h 3.0mph /  4.8km/h 50% 0.00in /  0mm 0.0 W/m2
05:42 60.6 °F /  15.9 °C 41.9 °F /  5.5 °C 29.67in /  1004.6hPa Calm   3.0mph /  4.8km/h 50% 0.00in /  0mm 0.0 W/m2
05:47 60.8 °F /  16 °C 42.1 °F /  5.6 °C 29.67in /  1004.6hPa East 2.0mph /  3.2km/h 4.0mph /  6.4km/h 50% 0.00in /  0mm 0.0 W/m2
05:52 60.8 °F /  16 °C 42.1 °F /  5.6 °C 29.67in /  1004.6hPa East 0.9mph /  1.4km/h 2.0mph /  3.2km/h 50% 0.00in /  0mm 0.0 W/m2
05:57 60.8 °F /  16 °C 41.5 °F /  5.3 °C 29.67in /  1004.6hPa East 0.9mph /  1.4km/h 3.0mph /  4.8km/h 49% 0.00in /  0mm 0.0 W/m2
06:02 60.8 °F /  16 °C 41.5 °F /  5.3 °C 29.67in /  1004.6hPa Calm   2.0mph /  3.2km/h 49% 0.00in /  0mm 0.0 W/m2
06:08 60.8 °F /  16 °C 41.5 °F /  5.3 °C 29.67in /  1004.6hPa East 0.9mph /  1.4km/h 1.0mph /  1.6km/h 49% 0.00in /  0mm 0.0 W/m2
06:13 60.8 °F /  16 °C 41.5 °F /  5.3 °C 29.67in /  1004.6hPa Calm   2.0mph /  3.2km/h 49% 0.00in /  0mm 0.0 W/m2
06:18 60.6 °F /  15.9 °C 41.4 °F /  5.2 °C 29.67in /  1004.6hPa East 0.9mph /  1.4km/h 2.0mph /  3.2km/h 49% 0.00in /  0mm 0.0 W/m2
06:23 60.6 °F /  15.9 °C 41.4 °F /  5.2 °C 29.67in /  1004.6hPa Calm   1.0mph /  1.6km/h 49% 0.00in /  0mm 0.0 W/m2
06:28 60.6 °F /  15.9 °C 40.8 °F /  4.9 °C 29.67in /  1004.6hPa East 0.9mph /  1.4km/h 1.0mph /  1.6km/h 48% 0.00in /  0mm 0.0 W/m2
06:33 60.6 °F /  15.9 °C 40.8 °F /  4.9 °C 29.67in /  1004.6hPa Calm   1.0mph /  1.6km/h 48% 0.00in /  0mm 0.0 W/m2
06:38 60.6 °F /  15.9 °C 40.8 °F /  4.9 °C 29.67in /  1004.6hPa Calm     48% 0.00in /  0mm 0.0 W/m2
06:44 60.6 °F /  15.9 °C 40.8 °F /  4.9 °C 29.68in /  1005hPa Calm     48% 0.00in /  0mm 0.0 W/m2
06:49 60.4 °F /  15.8 °C 41.2 °F /  5.1 °C 29.68in /  1005hPa Calm   1.0mph /  1.6km/h 49% 0.00in /  0mm 0.0 W/m2
06:54 60.4 °F /  15.8 °C 40.6 °F /  4.8 °C 29.68in /  1005hPa Calm   1.0mph /  1.6km/h 48% 0.00in /  0mm 5.0 W/m2
06:59 60.4 °F /  15.8 °C 40.6 °F /  4.8 °C 29.69in /  1005.3hPa East 2.0mph /  3.2km/h 2.0mph /  3.2km/h 48% 0.00in /  0mm 9.0 W/m2
07:04 60.4 °F /  15.8 °C 40.1 °F /  4.5 °C 29.70in /  1005.6hPa Calm   2.0mph /  3.2km/h 47% 0.00in /  0mm 11.0 W/m2
07:09 60.4 °F /  15.8 °C 40.1 °F /  4.5 °C 29.70in /  1005.6hPa Calm   1.0mph /  1.6km/h 47% 0.00in /  0mm 12.0 W/m2
07:14 60.4 °F /  15.8 °C 40.6 °F /  4.8 °C 29.70in /  1005.6hPa Calm     48% 0.00in /  0mm 14.0 W/m2
07:19 60.6 °F /  15.9 °C 40.8 °F /  4.9 °C 29.70in /  1005.6hPa Calm     48% 0.00in /  0mm 14.0 W/m2
07:24 60.6 °F /  15.9 °C 40.3 °F /  4.6 °C 29.71in /  1006hPa ENE 2.0mph /  3.2km/h 4.0mph /  6.4km/h 47% 0.00in /  0mm 16.0 W/m2
07:29 61.2 °F /  16.2 °C 41.9 °F /  5.5 °C 29.71in /  1006hPa ENE 2.0mph /  3.2km/h 4.0mph /  6.4km/h 49% 0.00in /  0mm 18.0 W/m2
07:35 61.9 °F /  16.6 °C 42.4 °F /  5.8 °C 29.71in /  1006hPa Calm   3.0mph /  4.8km/h 49% 0.00in /  0mm 19.0 W/m2
07:40 62.4 °F /  16.9 °C 43.0 °F /  6.1 °C 29.72in /  1006.3hPa Calm   3.0mph /  4.8km/h 49% 0.00in /  0mm 21.0 W/m2
07:45 63.0 °F /  17.2 °C 43.5 °F /  6.4 °C 29.72in /  1006.3hPa NNW 0.9mph /  1.4km/h 3.0mph /  4.8km/h 49% 0.00in /  0mm 23.0 W/m2
07:50 63.3 °F /  17.4 °C 43.9 °F /  6.6 °C 29.72in /  1006.3hPa Calm   3.0mph /  4.8km/h 49% 0.00in /  0mm 23.0 W/m2
07:55 63.7 °F /  17.6 °C 44.2 °F /  6.8 °C 29.72in /  1006.3hPa Calm   1.0mph /  1.6km/h 49% 0.00in /  0mm 25.0 W/m2
08:00 64.0 °F /  17.8 °C 44.4 °F /  6.9 °C 29.73in /  1006.7hPa Calm   1.0mph /  1.6km/h 49% 0.00in /  0mm 25.0 W/m2
08:05 64.2 °F /  17.9 °C 44.1 °F /  6.7 °C 29.73in /  1006.7hPa WNW 0.9mph /  1.4km/h 1.0mph /  1.6km/h 48% 0.00in /  0mm 32.0 W/m2
08:10 64.6 °F /  18.1 °C 44.4 °F /  6.9 °C 29.73in /  1006.7hPa Calm   1.0mph /  1.6km/h 48% 0.00in /  0mm 33.0 W/m2
08:15 64.9 °F /  18.3 °C 44.2 °F /  6.8 °C 29.74in /  1007hPa NNW 0.9mph /  1.4km/h 4.0mph /  6.4km/h 47% 0.00in /  0mm 30.0 W/m2
08:21 65.3 °F /  18.5 °C 44.6 °F /  7 °C 29.73in /  1006.7hPa Calm   2.0mph /  3.2km/h 47% 0.00in /  0mm 35.0 W/m2
08:26 65.7 °F /  18.7 °C 44.2 °F /  6.8 °C 29.73in /  1006.7hPa Calm   1.0mph /  1.6km/h 46% 0.00in /  0mm 30.0 W/m2
08:31 66.0 °F /  18.9 °C 44.6 °F /  7 °C 29.74in /  1007hPa Calm   2.0mph /  3.2km/h 46% 0.00in /  0mm 32.0 W/m2
08:36 66.4 °F /  19.1 °C 44.4 °F /  6.9 °C 29.74in /  1007hPa Calm   3.0mph /  4.8km/h 45% 0.00in /  0mm 32.0 W/m2
08:41 66.7 °F /  19.3 °C 45.3 °F /  7.4 °C 29.74in /  1007hPa Calm   4.0mph /  6.4km/h 46% 0.00in /  0mm 33.0 W/m2
08:46 67.1 °F /  19.5 °C 45.7 °F /  7.6 °C 29.74in /  1007hPa Calm   1.0mph /  1.6km/h 46% 0.00in /  0mm 35.0 W/m2
08:51 67.5 °F /  19.7 °C 45.3 °F /  7.4 °C 29.74in /  1007hPa Calm   2.0mph /  3.2km/h 45% 0.00in /  0mm 40.0 W/m2
08:56 67.8 °F /  19.9 °C 45.7 °F /  7.6 °C 29.74in /  1007hPa WSW 0.9mph /  1.4km/h 3.0mph /  4.8km/h 45% 0.00in /  0mm 127.0 W/m2
09:01 68.2 °F /  20.1 °C 45.5 °F /  7.5 °C 29.74in /  1007hPa WSW 0.9mph /  1.4km/h 4.0mph /  6.4km/h 44% 0.00in /  0mm 503.0 W/m2
09:07 68.5 °F /  20.3 °C 45.7 °F /  7.6 °C 29.74in /  1007hPa WSW 2.0mph /  3.2km/h 4.0mph /  6.4km/h 44% 0.00in /  0mm 522.0 W/m2
09:12 69.1 °F /  20.6 °C 45.7 °F /  7.6 °C 29.73in /  1006.7hPa Calm   3.0mph /  4.8km/h 43% 0.00in /  0mm 543.0 W/m2
09:17 69.4 °F /  20.8 °C 46.0 °F /  7.8 °C 29.74in /  1007hPa West 2.0mph /  3.2km/h 2.0mph /  3.2km/h 43% 0.00in /  0mm 564.0 W/m2
09:22 70.0 °F /  21.1 °C 45.1 °F /  7.3 °C 29.73in /  1006.7hPa West 2.0mph /  3.2km/h 3.0mph /  4.8km/h 41% 0.00in /  0mm 582.0 W/m2
09:27 70.5 °F /  21.4 °C 46.4 °F /  8 °C 29.73in /  1006.7hPa Calm   1.0mph /  1.6km/h 42% 0.00in /  0mm 603.0 W/m2
09:32 71.2 °F /  21.8 °C 45.7 °F /  7.6 °C 29.73in /  1006.7hPa Calm   2.0mph /  3.2km/h 40% 0.00in /  0mm 621.0 W/m2
09:37 71.8 °F /  22.1 °C 46.2 °F /  7.9 °C 29.73in /  1006.7hPa Calm   2.0mph /  3.2km/h 40% 0.00in /  0mm 640.0 W/m2
09:42 72.7 °F /  22.6 °C 46.2 °F /  7.9 °C 29.74in /  1007hPa West 0.9mph /  1.4km/h 2.0mph /  3.2km/h 39% 0.00in /  0mm 657.0 W/m2
09:48 73.2 °F /  22.9 °C 46.0 °F /  7.8 °C 29.73in /  1006.7hPa Calm   1.0mph /  1.6km/h 38% 0.00in /  0mm 675.0 W/m2
09:53 73.9 °F /  23.3 °C 46.0 °F /  7.8 °C 29.73in /  1006.7hPa Calm   3.0mph /  4.8km/h 37% 0.00in /  0mm 687.0 W/m2
09:58 74.8 °F /  23.8 °C 46.0 °F /  7.8 °C 29.73in /  1006.7hPa West 0.9mph /  1.4km/h 2.0mph /  3.2km/h 36% 0.00in /  0mm 707.0 W/m2
10:03 75.6 °F /  24.2 °C 46.0 °F /  7.8 °C 29.73in /  1006.7hPa West 0.9mph /  1.4km/h 3.0mph /  4.8km/h 35% 0.00in /  0mm 724.0 W/m2
10:08 76.1 °F /  24.5 °C 46.4 °F /  8 °C 29.73in /  1006.7hPa West 2.9mph /  4.7km/h 5.0mph /  8km/h 35% 0.00in /  0mm 738.0 W/m2
10:13 76.6 °F /  24.8 °C 46.2 °F /  7.9 °C 29.73in /  1006.7hPa WSW 0.9mph /  1.4km/h 6.0mph /  9.7km/h 34% 0.00in /  0mm 756.0 W/m2
10:18 77.0 °F /  25 °C 46.4 °F /  8 °C 29.73in /  1006.7hPa West 0.9mph /  1.4km/h 5.0mph /  8km/h 34% 0.00in /  0mm 772.0 W/m2
10:23 77.5 °F /  25.3 °C 46.2 °F /  7.9 °C 29.73in /  1006.7hPa NNW 0.9mph /  1.4km/h 4.0mph /  6.4km/h 33% 0.00in /  0mm 788.0 W/m2
10:28 78.6 °F /  25.9 °C 46.2 °F /  7.9 °C 29.72in /  1006.3hPa NW 0.9mph /  1.4km/h 3.0mph /  4.8km/h 32% 0.00in /  0mm 800.0 W/m2
10:33 79.5 °F /  26.4 °C 46.2 °F /  7.9 °C 29.72in /  1006.3hPa WSW 2.9mph /  4.7km/h 4.0mph /  6.4km/h 31% 0.00in /  0mm 810.0 W/m2
10:39 79.9 °F /  26.6 °C 46.6 °F /  8.1 °C 29.72in /  1006.3hPa West 0.9mph /  1.4km/h 6.0mph /  9.7km/h 31% 0.00in /  0mm 828.0 W/m2
10:44 80.1 °F /  26.7 °C 46.8 °F /  8.2 °C 29.72in /  1006.3hPa West 2.0mph /  3.2km/h 4.0mph /  6.4km/h 31% 0.00in /  0mm 837.0 W/m2
10:49 80.4 °F /  26.9 °C 46.2 °F /  7.9 °C 29.72in /  1006.3hPa Calm   3.0mph /  4.8km/h 30% 0.00in /  0mm 849.0 W/m2
10:54 81.7 °F /  27.6 °C 46.4 °F /  8 °C 29.72in /  1006.3hPa NNW 4.9mph /  7.9km/h 7.0mph /  11.3km/h 29% 0.00in /  0mm 867.0 W/m2
10:59 82.4 °F /  28 °C 46.0 °F /  7.8 °C 29.72in /  1006.3hPa NNW 2.0mph /  3.2km/h 6.0mph /  9.7km/h 28% 0.00in /  0mm 875.0 W/m2
11:04 82.9 °F /  28.3 °C 46.4 °F /  8 °C 29.72in /  1006.3hPa NW 6.0mph /  9.7km/h 7.0mph /  11.3km/h 28% 0.00in /  0mm 888.0 W/m2
11:09 83.5 °F /  28.6 °C 46.9 °F /  8.3 °C 29.72in /  1006.3hPa NW 0.9mph /  1.4km/h 4.0mph /  6.4km/h 28% 0.00in /  0mm 902.0 W/m2
11:14 83.7 °F /  28.7 °C 47.1 °F /  8.4 °C 29.71in /  1006hPa NNW 6.0mph /  9.7km/h 6.0mph /  9.7km/h 28% 0.00in /  0mm 907.0 W/m2
11:19 84.0 °F /  28.9 °C 46.4 °F /  8 °C 29.71in /  1006hPa WNW 2.0mph /  3.2km/h 4.0mph /  6.4km/h 27% 0.00in /  0mm 914.0 W/m2
11:24 84.6 °F /  29.2 °C 46.9 °F /  8.3 °C 29.71in /  1006hPa Calm   3.0mph /  4.8km/h 27% 0.00in /  0mm 932.0 W/m2
11:29 84.7 °F /  29.3 °C 47.1 °F /  8.4 °C 29.71in /  1006hPa NNW 2.9mph /  4.7km/h 7.0mph /  11.3km/h 27% 0.00in /  0mm 937.0 W/m2
11:35 85.1 °F /  29.5 °C 46.4 °F /  8 °C 29.70in /  1005.6hPa SW 2.0mph /  3.2km/h 3.0mph /  4.8km/h 26% 0.00in /  0mm 944.0 W/m2
11:40 85.5 °F /  29.7 °C 46.6 °F /  8.1 °C 29.70in /  1005.6hPa NNW 2.9mph /  4.7km/h 5.0mph /  8km/h 26% 0.00in /  0mm 954.0 W/m2
11:45 85.6 °F /  29.8 °C 46.8 °F /  8.2 °C 29.70in /  1005.6hPa North 2.9mph /  4.7km/h 6.0mph /  9.7km/h 26% 0.00in /  0mm 962.0 W/m2
11:50 86.4 °F /  30.2 °C 47.5 °F /  8.6 °C 29.70in /  1005.6hPa SSW 2.9mph /  4.7km/h 10.0mph /  16.1km/h 26% 0.00in /  0mm 972.0 W/m2
11:55 86.5 °F /  30.3 °C 47.7 °F /  8.7 °C 29.70in /  1005.6hPa NNW 4.9mph /  7.9km/h 7.0mph /  11.3km/h 26% 0.00in /  0mm 977.0 W/m2
12:00 86.9 °F /  30.5 °C 46.8 °F /  8.2 °C 29.70in /  1005.6hPa NW 2.9mph /  4.7km/h 5.0mph /  8km/h 25% 0.00in /  0mm 984.0 W/m2
12:05 86.7 °F /  30.4 °C 47.7 °F /  8.7 °C 29.70in /  1005.6hPa WSW 2.9mph /  4.7km/h 5.0mph /  8km/h 26% 0.00in /  0mm 990.0 W/m2
12:11 86.7 °F /  30.4 °C 46.8 °F /  8.2 °C 29.69in /  1005.3hPa WNW 2.0mph /  3.2km/h 10.0mph /  16.1km/h 25% 0.00in /  0mm 1009.0 W/m2
12:16 87.3 °F /  30.7 °C 47.1 °F /  8.4 °C 29.69in /  1005.3hPa NW 2.9mph /  4.7km/h 8.0mph /  12.9km/h 25% 0.00in /  0mm 1000.0 W/m2
12:21 87.6 °F /  30.9 °C 46.4 °F /  8 °C 29.68in /  1005hPa NNW 2.0mph /  3.2km/h 4.0mph /  6.4km/h 24% 0.00in /  0mm 1011.0 W/m2
12:27 88.0 °F /  31.1 °C 47.8 °F /  8.8 °C 29.68in /  1005hPa NNW 2.9mph /  4.7km/h 11.0mph /  17.7km/h 25% 0.00in /  0mm 1016.0 W/m2
12:32 88.5 °F /  31.4 °C 47.1 °F /  8.4 °C 29.68in /  1005hPa NW 4.0mph /  6.4km/h 7.0mph /  11.3km/h 24% 0.00in /  0mm 1028.0 W/m2
12:37 88.9 °F /  31.6 °C 46.2 °F /  7.9 °C 29.68in /  1005hPa West 2.0mph /  3.2km/h 11.0mph /  17.7km/h 23% 0.00in /  0mm 1021.0 W/m2
12:42 89.1 °F /  31.7 °C 46.4 °F /  8 °C 29.68in /  1005hPa West 2.0mph /  3.2km/h 6.0mph /  9.7km/h 23% 0.00in /  0mm 1032.0 W/m2
12:47 88.9 °F /  31.6 °C 46.2 °F /  7.9 °C 29.68in /  1005hPa NNW 6.0mph /  9.7km/h 7.0mph /  11.3km/h 23% 0.00in /  0mm 1034.0 W/m2
12:52 89.1 °F /  31.7 °C 46.4 °F /  8 °C 29.67in /  1004.6hPa NW 0.9mph /  1.4km/h 10.0mph /  16.1km/h 23% 0.00in /  0mm 1042.0 W/m2
12:57 88.9 °F /  31.6 °C 47.5 °F /  8.6 °C 29.67in /  1004.6hPa NNW 4.9mph /  7.9km/h 5.0mph /  8km/h 24% 0.00in /  0mm 1042.0 W/m2
13:02 88.9 °F /  31.6 °C 46.2 °F /  7.9 °C 29.67in /  1004.6hPa West 2.9mph /  4.7km/h 14.0mph /  22.5km/h 23% 0.00in /  0mm 1076.0 W/m2
13:07 89.1 °F /  31.7 °C 46.4 °F /  8 °C 29.67in /  1004.6hPa WSW 6.9mph /  11.1km/h 7.0mph /  11.3km/h 23% 0.00in /  0mm 1097.0 W/m2
13:12 89.2 °F /  31.8 °C 46.6 °F /  8.1 °C 29.66in /  1004.3hPa NW 2.9mph /  4.7km/h 8.0mph /  12.9km/h 23% 0.00in /  0mm 1086.0 W/m2
13:18 89.2 °F /  31.8 °C 45.5 °F /  7.5 °C 29.67in /  1004.6hPa NW 4.0mph /  6.4km/h 9.0mph /  14.5km/h 22% 0.00in /  0mm 1095.0 W/m2
13:23 89.2 °F /  31.8 °C 45.5 °F /  7.5 °C 29.66in /  1004.3hPa SSW 4.0mph /  6.4km/h 9.0mph /  14.5km/h 22% 0.00in /  0mm 1172.0 W/m2
13:28 89.2 °F /  31.8 °C 45.5 °F /  7.5 °C 29.66in /  1004.3hPa West 4.9mph /  7.9km/h 7.0mph /  11.3km/h 22% 0.00in /  0mm 1227.0 W/m2
13:33 89.4 °F /  31.9 °C 45.5 °F /  7.5 °C 29.66in /  1004.3hPa NW 6.9mph /  11.1km/h 10.0mph /  16.1km/h 22% 0.00in /  0mm 1139.0 W/m2
13:38 89.8 °F /  32.1 °C 44.6 °F /  7 °C 29.66in /  1004.3hPa Calm   7.0mph /  11.3km/h 21% 0.00in /  0mm 1153.0 W/m2
13:43 90.0 °F /  32.2 °C 46.0 °F /  7.8 °C 29.65in /  1003.9hPa WSW 2.9mph /  4.7km/h 8.0mph /  12.9km/h 22% 0.00in /  0mm 1153.0 W/m2
13:48 90.3 °F /  32.4 °C 43.9 °F /  6.6 °C 29.65in /  1003.9hPa NNE 14.1mph /  22.7km/h 15.0mph /  24.1km/h 20% 0.00in /  0mm 1158.0 W/m2
13:53 90.7 °F /  32.6 °C 45.3 °F /  7.4 °C 29.65in /  1003.9hPa NNW 4.0mph /  6.4km/h 9.0mph /  14.5km/h 21% 0.00in /  0mm 1141.0 W/m2
13:58 90.9 °F /  32.7 °C 45.5 °F /  7.5 °C 29.65in /  1003.9hPa SW 2.0mph /  3.2km/h 6.0mph /  9.7km/h 21% 0.00in /  0mm 274.0 W/m2
14:04 90.3 °F /  32.4 °C 45.1 °F /  7.3 °C 29.65in /  1003.9hPa WSW 2.9mph /  4.7km/h 5.0mph /  8km/h 21% 0.00in /  0mm 278.0 W/m2
14:09 89.8 °F /  32.1 °C 44.6 °F /  7 °C 29.65in /  1003.9hPa NNE 0.9mph /  1.4km/h 4.0mph /  6.4km/h 21% 0.00in /  0mm 1155.0 W/m2
14:14 90.1 °F /  32.3 °C 45.0 °F /  7.2 °C 29.65in /  1003.9hPa Calm   7.0mph /  11.3km/h 21% 0.00in /  0mm 1153.0 W/m2
14:19 90.7 °F /  32.6 °C 44.1 °F /  6.7 °C 29.64in /  1003.6hPa SSE 4.9mph /  7.9km/h 5.0mph /  8km/h 20% 0.00in /  0mm 206.0 W/m2
14:24 90.3 °F /  32.4 °C 43.9 °F /  6.6 °C 29.64in /  1003.6hPa Calm   3.0mph /  4.8km/h 20% 0.00in /  0mm 197.0 W/m2
14:29 89.8 °F /  32.1 °C 44.6 °F /  7 °C 29.64in /  1003.6hPa NE 4.9mph /  7.9km/h 9.0mph /  14.5km/h 21% 0.00in /  0mm 216.0 W/m2
14:34 89.2 °F /  31.8 °C 44.2 °F /  6.8 °C 29.64in /  1003.6hPa NNW 6.0mph /  9.7km/h 6.0mph /  9.7km/h 21% 0.00in /  0mm 220.0 W/m2
14:39 88.9 °F /  31.6 °C 43.9 °F /  6.6 °C 29.64in /  1003.6hPa NE 6.0mph /  9.7km/h 6.0mph /  9.7km/h 21% 0.00in /  0mm 299.0 W/m2
14:45 88.9 °F /  31.6 °C 43.9 °F /  6.6 °C 29.64in /  1003.6hPa NNE 6.9mph /  11.1km/h 9.0mph /  14.5km/h 21% 0.00in /  0mm 1071.0 W/m2
14:50 89.2 °F /  31.8 °C 44.2 °F /  6.8 °C 29.64in /  1003.6hPa North 4.0mph /  6.4km/h 4.0mph /  6.4km/h 21% 0.00in /  0mm 220.0 W/m2
14:55 89.1 °F /  31.7 °C 44.1 °F /  6.7 °C 29.64in /  1003.6hPa NNW 2.9mph /  4.7km/h 6.0mph /  9.7km/h 21% 0.00in /  0mm 200.0 W/m2
15:00 88.5 °F /  31.4 °C 44.8 °F /  7.1 °C 29.63in /  1003.3hPa NNW 4.0mph /  6.4km/h 5.0mph /  8km/h 22% 0.00in /  0mm 181.0 W/m2
15:05 88.3 °F /  31.3 °C 43.5 °F /  6.4 °C 29.63in /  1003.3hPa WSW 2.0mph /  3.2km/h 6.0mph /  9.7km/h 21% 0.00in /  0mm 258.0 W/m2
15:10 88.5 °F /  31.4 °C 44.8 °F /  7.1 °C 29.63in /  1003.3hPa West 0.9mph /  1.4km/h 8.0mph /  12.9km/h 22% 0.00in /  0mm 942.0 W/m2
15:15 89.6 °F /  32 °C 44.4 °F /  6.9 °C 29.62in /  1002.9hPa SW 4.9mph /  7.9km/h 10.0mph /  16.1km/h 21% 0.00in /  0mm 925.0 W/m2
15:20 90.0 °F /  32.2 °C 44.8 °F /  7.1 °C 29.62in /  1002.9hPa Calm   6.0mph /  9.7km/h 21% 0.00in /  0mm 932.0 W/m2
15:25 90.7 °F /  32.6 °C 45.3 °F /  7.4 °C 29.62in /  1002.9hPa SSW 0.9mph /  1.4km/h 2.0mph /  3.2km/h 21% 0.00in /  0mm 935.0 W/m2
15:30 91.2 °F /  32.9 °C 44.6 °F /  7 °C 29.61in /  1002.6hPa NW 0.9mph /  1.4km/h 8.0mph /  12.9km/h 20% 0.00in /  0mm 949.0 W/m2
15:36 91.9 °F /  33.3 °C 43.7 °F /  6.5 °C 29.62in /  1002.9hPa NW 0.9mph /  1.4km/h 8.0mph /  12.9km/h 19% 0.00in /  0mm 939.0 W/m2
15:41 92.8 °F /  33.8 °C 43.2 °F /  6.2 °C 29.61in /  1002.6hPa West 0.9mph /  1.4km/h 8.0mph /  12.9km/h 18% 0.00in /  0mm 935.0 W/m2
15:46 92.5 °F /  33.6 °C 42.8 °F /  6 °C 29.62in /  1002.9hPa NNE 6.0mph /  9.7km/h 11.0mph /  17.7km/h 18% 0.00in /  0mm 186.0 W/m2
15:51 91.8 °F /  33.2 °C 45.0 °F /  7.2 °C 29.61in /  1002.6hPa Calm   1.0mph /  1.6km/h 20% 0.00in /  0mm 176.0 W/m2
15:56 91.2 °F /  32.9 °C 43.2 °F /  6.2 °C 29.61in /  1002.6hPa NNW 0.9mph /  1.4km/h 7.0mph /  11.3km/h 19% 0.00in /  0mm 237.0 W/m2
16:01 90.7 °F /  32.6 °C 42.8 °F /  6 °C 29.61in /  1002.6hPa WSW 0.9mph /  1.4km/h 3.0mph /  4.8km/h 19% 0.00in /  0mm 163.0 W/m2
16:06 90.0 °F /  32.2 °C 42.3 °F /  5.7 °C 29.61in /  1002.6hPa North 6.9mph /  11.1km/h 8.0mph /  12.9km/h 19% 0.00in /  0mm 146.0 W/m2
16:11 89.4 °F /  31.9 °C 41.7 °F /  5.4 °C 29.61in /  1002.6hPa Calm   2.0mph /  3.2km/h 19% 0.00in /  0mm 142.0 W/m2
16:16 89.1 °F /  31.7 °C 42.8 °F /  6 °C 29.61in /  1002.6hPa NNW 6.0mph /  9.7km/h 7.0mph /  11.3km/h 20% 0.00in /  0mm 144.0 W/m2
16:22 88.5 °F /  31.4 °C 42.3 °F /  5.7 °C 29.61in /  1002.6hPa Calm   5.0mph /  8km/h 20% 0.00in /  0mm 171.0 W/m2
16:27 88.9 °F /  31.6 °C 42.6 °F /  5.9 °C 29.61in /  1002.6hPa SSW 4.0mph /  6.4km/h 5.0mph /  8km/h 20% 0.00in /  0mm 135.0 W/m2
16:33 88.3 °F /  31.3 °C 40.8 °F /  4.9 °C 29.61in /  1002.6hPa West 2.0mph /  3.2km/h 5.0mph /  8km/h 19% 0.00in /  0mm 155.0 W/m2
16:38 88.0 °F /  31.1 °C 40.6 °F /  4.8 °C 29.61in /  1002.6hPa South 0.9mph /  1.4km/h 3.0mph /  4.8km/h 19% 0.00in /  0mm 162.0 W/m2
16:43 87.8 °F /  31 °C 41.7 °F /  5.4 °C 29.61in /  1002.6hPa Calm   1.0mph /  1.6km/h 20% 0.00in /  0mm 146.0 W/m2
16:48 88.0 °F /  31.1 °C 41.9 °F /  5.5 °C 29.61in /  1002.6hPa West 4.9mph /  7.9km/h 5.0mph /  8km/h 20% 0.00in /  0mm 396.0 W/m2
16:53 88.2 °F /  31.2 °C 42.1 °F /  5.6 °C 29.60in /  1002.3hPa South 2.0mph /  3.2km/h 3.0mph /  4.8km/h 20% 0.00in /  0mm 608.0 W/m2
16:58 89.1 °F /  31.7 °C 42.8 °F /  6 °C 29.60in /  1002.3hPa West 0.9mph /  1.4km/h 3.0mph /  4.8km/h 20% 0.00in /  0mm 598.0 W/m2
17:03 89.8 °F /  32.1 °C 43.3 °F /  6.3 °C 29.60in /  1002.3hPa SW 2.9mph /  4.7km/h 7.0mph /  11.3km/h 20% 0.00in /  0mm 591.0 W/m2
17:09 90.1 °F /  32.3 °C 42.3 °F /  5.7 °C 29.60in /  1002.3hPa SSE 4.0mph /  6.4km/h 5.0mph /  8km/h 19% 0.00in /  0mm 575.0 W/m2
17:14 90.1 °F /  32.3 °C 42.3 °F /  5.7 °C 29.60in /  1002.3hPa SSW 2.0mph /  3.2km/h 5.0mph /  8km/h 19% 0.00in /  0mm 568.0 W/m2
17:19 90.7 °F /  32.6 °C 42.8 °F /  6 °C 29.60in /  1002.3hPa SSW 2.9mph /  4.7km/h 8.0mph /  12.9km/h 19% 0.00in /  0mm 548.0 W/m2
17:24 90.9 °F /  32.7 °C 43.0 °F /  6.1 °C 29.60in /  1002.3hPa WSW 2.0mph /  3.2km/h 3.0mph /  4.8km/h 19% 0.00in /  0mm 524.0 W/m2
17:29 91.2 °F /  32.9 °C 41.7 °F /  5.4 °C 29.60in /  1002.3hPa SSW 0.9mph /  1.4km/h 3.0mph /  4.8km/h 18% 0.00in /  0mm 475.0 W/m2
17:34 91.8 °F /  33.2 °C 42.3 °F /  5.7 °C 29.60in /  1002.3hPa NW 2.0mph /  3.2km/h 4.0mph /  6.4km/h 18% 0.00in /  0mm 439.0 W/m2
17:39 92.3 °F /  33.5 °C 42.6 °F /  5.9 °C 29.60in /  1002.3hPa Calm   1.0mph /  1.6km/h 18% 0.00in /  0mm 297.0 W/m2
17:44 92.7 °F /  33.7 °C 44.4 °F /  6.9 °C 29.60in /  1002.3hPa NNE 2.9mph /  4.7km/h 7.0mph /  11.3km/h 19% 0.00in /  0mm 378.0 W/m2
17:49 92.3 °F /  33.5 °C 44.1 °F /  6.7 °C 29.60in /  1002.3hPa NNW 2.0mph /  3.2km/h 7.0mph /  11.3km/h 19% 0.00in /  0mm 174.0 W/m2
17:54 91.6 °F /  33.1 °C 43.5 °F /  6.4 °C 29.61in /  1002.6hPa North 0.9mph /  1.4km/h 7.0mph /  11.3km/h 19% 0.00in /  0mm 60.0 W/m2
18:00 90.3 °F /  32.4 °C 42.4 °F /  5.8 °C 29.60in /  1002.3hPa NW 2.0mph /  3.2km/h 7.0mph /  11.3km/h 19% 0.00in /  0mm 54.0 W/m2
18:05 89.4 °F /  31.9 °C 43.0 °F /  6.1 °C 29.61in /  1002.6hPa NNW 4.0mph /  6.4km/h 6.0mph /  9.7km/h 20% 0.00in /  0mm 179.0 W/m2
18:10 88.9 °F /  31.6 °C 43.9 °F /  6.6 °C 29.60in /  1002.3hPa NNW 2.0mph /  3.2km/h 5.0mph /  8km/h 21% 0.00in /  0mm 197.0 W/m2
18:15 88.7 °F /  31.5 °C 43.7 °F /  6.5 °C 29.61in /  1002.6hPa West 2.9mph /  4.7km/h 3.0mph /  4.8km/h 21% 0.00in /  0mm 70.0 W/m2
18:20 88.3 °F /  31.3 °C 43.5 °F /  6.4 °C 29.61in /  1002.6hPa ESE 0.9mph /  1.4km/h 3.0mph /  4.8km/h 21% 0.00in /  0mm 56.0 W/m2
18:25 88.3 °F /  31.3 °C 42.3 °F /  5.7 °C 29.61in /  1002.6hPa NNE 2.0mph /  3.2km/h 2.0mph /  3.2km/h 20% 0.00in /  0mm 65.0 W/m2
18:30 88.2 °F /  31.2 °C 42.1 °F /  5.6 °C 29.61in /  1002.6hPa NNE 2.9mph /  4.7km/h 4.0mph /  6.4km/h 20% 0.00in /  0mm 135.0 W/m2
18:35 88.0 °F /  31.1 °C 41.9 °F /  5.5 °C 29.61in /  1002.6hPa Calm   3.0mph /  4.8km/h 20% 0.00in /  0mm 32.0 W/m2
18:40 87.8 °F /  31 °C 41.7 °F /  5.4 °C 29.61in /  1002.6hPa NE 0.9mph /  1.4km/h 2.0mph /  3.2km/h 20% 0.00in /  0mm 63.0 W/m2
18:46 87.6 °F /  30.9 °C 42.8 °F /  6 °C 29.62in /  1002.9hPa NNW 2.0mph /  3.2km/h 7.0mph /  11.3km/h 21% 0.00in /  0mm 77.0 W/m2
18:51 87.3 °F /  30.7 °C 43.7 °F /  6.5 °C 29.62in /  1002.9hPa North 0.9mph /  1.4km/h 5.0mph /  8km/h 22% 0.00in /  0mm 32.0 W/m2
18:56 86.7 °F /  30.4 °C 43.3 °F /  6.3 °C 29.62in /  1002.9hPa NNW 0.9mph /  1.4km/h 5.0mph /  8km/h 22% 0.00in /  0mm 16.0 W/m2
19:01 86.2 °F /  30.1 °C 42.8 °F /  6 °C 29.62in /  1002.9hPa NNW 4.0mph /  6.4km/h 5.0mph /  8km/h 22% 0.00in /  0mm 11.0 W/m2
19:06 85.5 °F /  29.7 °C 43.5 °F /  6.4 °C 29.62in /  1002.9hPa NW 2.0mph /  3.2km/h 6.0mph /  9.7km/h 23% 0.00in /  0mm 7.0 W/m2
19:11 84.9 °F /  29.4 °C 43.0 °F /  6.1 °C 29.63in /  1003.3hPa Calm   5.0mph /  8km/h 23% 0.00in /  0mm 5.0 W/m2
19:16 84.6 °F /  29.2 °C 42.6 °F /  5.9 °C 29.63in /  1003.3hPa NE 2.0mph /  3.2km/h 7.0mph /  11.3km/h 23% 0.00in /  0mm 0.0 W/m2
19:21 84.4 °F /  29.1 °C 43.7 °F /  6.5 °C 29.63in /  1003.3hPa NNW 4.9mph /  7.9km/h 6.0mph /  9.7km/h 24% 0.00in /  0mm 0.0 W/m2
19:26 84.0 °F /  28.9 °C 43.3 °F /  6.3 °C 29.64in /  1003.6hPa NNW 2.0mph /  3.2km/h 6.0mph /  9.7km/h 24% 0.00in /  0mm 0.0 W/m2
19:32 83.7 °F /  28.7 °C 43.0 °F /  6.1 °C 29.64in /  1003.6hPa NNW 4.9mph /  7.9km/h 8.0mph /  12.9km/h 24% 0.00in /  0mm 0.0 W/m2
19:37 83.5 °F /  28.6 °C 43.9 °F /  6.6 °C 29.65in /  1003.9hPa NNW 2.0mph /  3.2km/h 5.0mph /  8km/h 25% 0.00in /  0mm 0.0 W/m2
19:42 83.1 °F /  28.4 °C 43.7 °F /  6.5 °C 29.65in /  1003.9hPa NW 0.9mph /  1.4km/h 4.0mph /  6.4km/h 25% 0.00in /  0mm 0.0 W/m2
19:48 82.9 °F /  28.3 °C 43.5 °F /  6.4 °C 29.66in /  1004.3hPa WSW 4.0mph /  6.4km/h 4.0mph /  6.4km/h 25% 0.00in /  0mm 0.0 W/m2
19:54 82.8 °F /  28.2 °C 43.3 °F /  6.3 °C 29.66in /  1004.3hPa Calm   1.0mph /  1.6km/h 25% 0.00in /  0mm 0.0 W/m2
19:59 82.6 °F /  28.1 °C 44.2 °F /  6.8 °C 29.66in /  1004.3hPa WSW 0.9mph /  1.4km/h 2.0mph /  3.2km/h 26% 0.00in /  0mm 0.0 W/m2
20:05 82.2 °F /  27.9 °C 43.9 °F /  6.6 °C 29.67in /  1004.6hPa Calm   2.0mph /  3.2km/h 26% 0.00in /  0mm 0.0 W/m2
20:10 82.0 °F /  27.8 °C 43.7 °F /  6.5 °C 29.67in /  1004.6hPa Calm   4.0mph /  6.4km/h 26% 0.00in /  0mm 0.0 W/m2
20:15 81.7 °F /  27.6 °C 43.5 °F /  6.4 °C 29.67in /  1004.6hPa West 0.9mph /  1.4km/h 2.0mph /  3.2km/h 26% 0.00in /  0mm 0.0 W/m2
20:21 81.3 °F /  27.4 °C 44.1 °F /  6.7 °C 29.67in /  1004.6hPa West 0.9mph /  1.4km/h 5.0mph /  8km/h 27% 0.00in /  0mm 0.0 W/m2
20:26 81.0 °F /  27.2 °C 43.9 °F /  6.6 °C 29.67in /  1004.6hPa Calm   8.0mph /  12.9km/h 27% 0.00in /  0mm 0.0 W/m2
20:31 80.4 °F /  26.9 °C 44.2 °F /  6.8 °C 29.67in /  1004.6hPa Calm   6.0mph /  9.7km/h 28% 0.00in /  0mm 0.0 W/m2
20:37 79.9 °F /  26.6 °C 43.9 °F /  6.6 °C 29.68in /  1005hPa WSW 0.9mph /  1.4km/h 5.0mph /  8km/h 28% 0.00in /  0mm 0.0 W/m2
20:42 79.5 °F /  26.4 °C 44.4 °F /  6.9 °C 29.68in /  1005hPa Calm     29% 0.00in /  0mm 0.0 W/m2
20:47 79.2 °F /  26.2 °C 44.2 °F /  6.8 °C 29.68in /  1005hPa Calm   2.0mph /  3.2km/h 29% 0.00in /  0mm 0.0 W/m2
20:53 79.0 °F /  26.1 °C 45.0 °F /  7.2 °C 29.68in /  1005hPa WSW 2.0mph /  3.2km/h 3.0mph /  4.8km/h 30% 0.00in /  0mm 0.0 W/m2
20:58 78.6 °F /  25.9 °C 44.6 °F /  7 °C 29.68in /  1005hPa WNW 2.9mph /  4.7km/h 3.0mph /  4.8km/h 30% 0.00in /  0mm 0.0 W/m2
21:03 78.4 °F /  25.8 °C 44.4 °F /  6.9 °C 29.68in /  1005hPa Calm   5.0mph /  8km/h 30% 0.00in /  0mm 0.0 W/m2
21:08 78.3 °F /  25.7 °C 44.2 °F /  6.8 °C 29.69in /  1005.3hPa WSW 6.9mph /  11.1km/h 8.0mph /  12.9km/h 30% 0.00in /  0mm 0.0 W/m2
21:13 77.9 °F /  25.5 °C 44.8 °F /  7.1 °C 29.69in /  1005.3hPa WSW 2.0mph /  3.2km/h 5.0mph /  8km/h 31% 0.00in /  0mm 0.0 W/m2
21:18 77.7 °F /  25.4 °C 44.6 °F /  7 °C 29.69in /  1005.3hPa West 0.9mph /  1.4km/h 3.0mph /  4.8km/h 31% 0.00in /  0mm 0.0 W/m2
21:23 77.7 °F /  25.4 °C 44.6 °F /  7 °C 29.69in /  1005.3hPa Calm   2.0mph /  3.2km/h 31% 0.00in /  0mm 0.0 W/m2
21:28 77.5 °F /  25.3 °C 44.6 °F /  7 °C 29.69in /  1005.3hPa WSW 2.9mph /  4.7km/h 4.0mph /  6.4km/h 31% 0.00in /  0mm 0.0 W/m2
21:33 77.7 °F /  25.4 °C 44.6 °F /  7 °C 29.69in /  1005.3hPa Calm   4.0mph /  6.4km/h 31% 0.00in /  0mm 0.0 W/m2
21:38 77.7 °F /  25.4 °C 44.6 °F /  7 °C 29.69in /  1005.3hPa Calm   2.0mph /  3.2km/h 31% 0.00in /  0mm 0.0 W/m2
21:43 77.7 °F /  25.4 °C 44.6 °F /  7 °C 29.69in /  1005.3hPa Calm     31% 0.00in /  0mm 0.0 W/m2
21:48 77.7 °F /  25.4 °C 44.6 °F /  7 °C 29.70in /  1005.6hPa Calm     31% 0.00in /  0mm 0.0 W/m2
21:53 77.7 °F /  25.4 °C 45.5 °F /  7.5 °C 29.70in /  1005.6hPa Calm   2.0mph /  3.2km/h 32% 0.00in /  0mm 0.0 W/m2
21:58 77.7 °F /  25.4 °C 45.5 °F /  7.5 °C 29.70in /  1005.6hPa Calm   1.0mph /  1.6km/h 32% 0.00in /  0mm 0.0 W/m2
22:03 77.7 °F /  25.4 °C 45.5 °F /  7.5 °C 29.70in /  1005.6hPa Calm   1.0mph /  1.6km/h 32% 0.00in /  0mm 0.0 W/m2
22:08 77.7 °F /  25.4 °C 45.5 °F /  7.5 °C 29.70in /  1005.6hPa Calm   1.0mph /  1.6km/h 32% 0.00in /  0mm 0.0 W/m2
22:13 77.7 °F /  25.4 °C 45.5 °F /  7.5 °C 29.70in /  1005.6hPa Calm   2.0mph /  3.2km/h 32% 0.00in /  0mm 0.0 W/m2
22:18 77.5 °F /  25.3 °C 45.3 °F /  7.4 °C 29.70in /  1005.6hPa Calm   4.0mph /  6.4km/h 32% 0.00in /  0mm 0.0 W/m2
22:24 77.4 °F /  25.2 °C 45.1 °F /  7.3 °C 29.70in /  1005.6hPa SE 0.9mph /  1.4km/h 4.0mph /  6.4km/h 32% 0.00in /  0mm 0.0 W/m2
22:29 77.4 °F /  25.2 °C 45.1 °F /  7.3 °C 29.70in /  1005.6hPa Calm   1.0mph /  1.6km/h 32% 0.00in /  0mm 0.0 W/m2
22:39 77.2 °F /  25.1 °C 45.0 °F /  7.2 °C 29.70in /  1005.6hPa Calm   4.0mph /  6.4km/h 32% 0.00in /  0mm 0.0 W/m2
22:45 77.0 °F /  25 °C 45.0 °F /  7.2 °C 29.70in /  1005.6hPa Calm   1.0mph /  1.6km/h 32% 0.00in /  0mm 0.0 W/m2
22:50 76.8 °F /  24.9 °C 44.8 °F /  7.1 °C 29.70in /  1005.6hPa Calm   3.0mph /  4.8km/h 32% 0.00in /  0mm 0.0 W/m2
22:55 77.0 °F /  25 °C 45.0 °F /  7.2 °C 29.70in /  1005.6hPa Calm     32% 0.00in /  0mm 0.0 W/m2
23:01 77.0 °F /  25 °C 45.0 °F /  7.2 °C 29.70in /  1005.6hPa Calm     32% 0.00in /  0mm 0.0 W/m2
23:07 76.8 °F /  24.9 °C 44.8 °F /  7.1 °C 29.70in /  1005.6hPa Calm   1.0mph /  1.6km/h 32% 0.00in /  0mm 0.0 W/m2
23:10 76.8 °F /  24.9 °C 44.8 °F /  7.1 °C 29.70in /  1005.6hPa Calm     32% 0.00in /  0mm 0.0 W/m2
23:12 76.8 °F /  24.9 °C 44.8 °F /  7.1 °C 29.70in /  1005.6hPa Calm     32% 0.00in /  0mm 0.0 W/m2
23:17 76.8 °F /  24.9 °C 44.8 °F /  7.1 °C 29.71in /  1006hPa Calm     32% 0.00in /  0mm 0.0 W/m2
23:22 76.8 °F /  24.9 °C 44.8 °F /  7.1 °C 29.70in /  1005.6hPa Calm   1.0mph /  1.6km/h 32% 0.00in /  0mm 0.0 W/m2
23:28 76.8 °F /  24.9 °C 42.1 °F /  5.6 °C 29.70in /  1005.6hPa SE 2.0mph /  3.2km/h 6.0mph /  9.7km/h 29% 0.00in /  0mm 0.0 W/m2
23:33 77.2 °F /  25.1 °C 42.4 °F /  5.8 °C 29.71in /  1006hPa SE 0.9mph /  1.4km/h 5.0mph /  8km/h 29% 0.00in /  0mm 0.0 W/m2
23:38 77.5 °F /  25.3 °C 43.7 °F /  6.5 °C 29.71in /  1006hPa SE 2.9mph /  4.7km/h 8.0mph /  12.9km/h 30% 0.00in /  0mm 0.0 W/m2
23:43 77.7 °F /  25.4 °C 43.9 °F /  6.6 °C 29.70in /  1005.6hPa SE 2.9mph /  4.7km/h 8.0mph /  12.9km/h 30% 0.00in /  0mm 0.0 W/m2
23:49 77.7 °F /  25.4 °C 43.9 °F /  6.6 °C 29.70in /  1005.6hPa SSE 4.0mph /  6.4km/h 5.0mph /  8km/h 30% 0.00in /  0mm 0.0 W/m2
23:54 77.5 °F /  25.3 °C 44.6 °F /  7 °C 29.70in /  1005.6hPa SE 4.9mph /  7.9km/h 5.0mph /  8km/h 31% 0.00in /  0mm 0.0 W/m2
23:59 77.4 °F /  25.2 °C 44.4 °F /  6.9 °C 29.70in /  1005.6hPa SE 2.0mph /  3.2km/h 6.0mph /  9.7km/h 31% 0.00in /  0mm 0.0 W/m2
Olympia, Windhoek, Namibia
Compliments of Weather Underground - 3.25 mb